logo
Search for airport 
image banner adimage banner adimage banner ad
image banner ad

LZTT - Poprad-Tatry

Located in Poprad, Slovakia

ICAO - LZTT, IATA - TAT

Data provided by Airmate  

General information

Coordinates: N49°4'25" E20°14'28"
Elevation is 2355 feet MSL.
Magnetic variation is 5.6119° East
View others Airports in Košice

Operational data

Special qualification required
Current time UTC:
Current local time:
Weather
METAR: LZTT 140030Z 24006KT CAVOK 11/07 Q1022
TAF: TAF LZTT 132315Z 1400/1500 27009KT 9999 FEW053 TEMPO 1408/1416 26015G25KT BECMG 1418/1420 VRB02KT
View NOTAMs / SUP AIP / TFR affecting this airport [VIEW]
Communications frequencies: [VIEW]

Runways:

RWY identifierQFULength (ft)Width (ft)SurfaceLDA (ft)
0994°8530148CONC8530
27274°8530148CONC8530
07R73°2493148GRASS2493
25L253°2493148GRASS2493
07L73°2493115GRASS2493
25R253°2493115GRASS2493

Airport contact information

Address: Poprad Slovakia

Other aviation service providers

Flight schools

Air-Transport Europe

Air-Transport Europe
ate@ate.sk+421527761911

Aviation club (not for profit)

Aeroklub Poprad

Aeroklub Poprad
aeroklub@aeroklubpoprad.sk+421911414707
+421911414707

Satellite view of LZTT